Time;durP1;ratioP1;P1;durP2;ratioP2;P2;SDS_P1;SDS_P2;PMS_P1;PMS_P2;Temp;Humidity;BMP_temperature;BMP_pressure;BME280_temperature;BME280_humidity;BME280_pressure;Samples;Min_cycle;Max_cycle;Signal;HPM_P1;HPM_P2
2022/11/06 00:00:33;;;;;;;31.88;16.38;;;;;;;8.01;100.00;101367.66;5075363;28;20025;-47
2022/11/06 00:03:00;;;;;;;30.40;15.85;;;;;;;7.97;100.00;101372.59;5074937;28;20036;-47
2022/11/06 00:08:10;;;;;;;36.40;15.23;;;;;;;7.90;100.00;101379.06;5074927;28;20047;-44
2022/11/06 00:10:35;;;;;;;30.40;14.25;;;;;;;7.89;100.00;101370.50;5075287;28;20020;-46
2022/11/06 00:13:00;;;;;;;36.42;15.77;;;;;;;7.88;100.00;101376.44;5074229;28;20024;-46
2022/11/06 00:15:26;;;;;;;33.63;14.07;;;;;;;7.87;100.00;101366.97;5074863;28;20024;-46
2022/11/06 00:17:51;;;;;;;37.05;14.90;;;;;;;7.82;100.00;101365.88;5075007;28;20020;-48
2022/11/06 00:20:16;;;;;;;32.35;14.27;;;;;;;7.85;100.00;101360.00;5074134;28;20054;-43
2022/11/06 00:22:42;;;;;;;36.90;13.63;;;;;;;7.86;100.00;101354.97;5074734;28;20537;-46
2022/11/06 00:25:08;;;;;;;36.33;14.18;;;;;;;7.84;100.00;101360.84;5074518;28;20465;-45
2022/11/06 00:27:38;;;;;;;31.90;13.63;;;;;;;7.78;100.00;101358.84;5074434;28;20467;-45
2022/11/06 00:30:05;;;;;;;30.38;12.80;;;;;;;7.75;100.00;101362.13;5074168;28;20495;-45
2022/11/06 00:32:31;;;;;;;30.48;12.57;;;;;;;7.74;100.00;101356.94;5074730;28;20024;-45
2022/11/06 00:34:57;;;;;;;30.35;12.63;;;;;;;7.74;100.00;101347.53;5073761;28;20019;-44
2022/11/06 00:37:22;;;;;;;32.70;12.23;;;;;;;7.74;100.00;101337.25;5074540;28;20027;-45
2022/11/06 00:39:47;;;;;;;38.05;11.75;;;;;;;7.78;100.00;101338.31;5074107;28;20125;-46
2022/11/06 00:42:13;;;;;;;32.47;11.88;;;;;;;7.78;100.00;101335.72;5074599;28;20075;-47
2022/11/06 00:44:38;;;;;;;33.47;12.13;;;;;;;7.75;100.00;101326.19;5074313;28;20047;-46
2022/11/06 00:47:04;;;;;;;24.85;11.50;;;;;;;7.73;100.00;101339.75;5073375;28;20610;-44
2022/11/06 00:49:29;;;;;;;34.22;11.75;;;;;;;7.68;100.00;101341.22;5074385;28;20033;-46
2022/11/06 00:51:54;;;;;;;32.95;12.30;;;;;;;7.67;100.00;101335.22;5073970;28;20491;-47
2022/11/06 00:54:19;;;;;;;27.52;11.50;;;;;;;7.63;100.00;101346.16;5072729;28;20028;-46
2022/11/06 00:56:45;;;;;;;28.88;11.02;;;;;;;7.63;100.00;101347.81;5074324;28;20073;-47
2022/11/06 00:59:12;;;;;;;31.25;12.13;;;;;;;7.58;100.00;101345.91;5073656;28;20029;-43
2022/11/06 01:01:40;;;;;;;31.83;11.52;;;;;;;7.55;100.00;101343.19;5073582;28;20031;-47
2022/11/06 01:04:10;;;;;;;38.55;11.65;;;;;;;7.54;100.00;101346.56;5073711;28;20025;-45
2022/11/06 01:06:38;;;;;;;32.15;11.73;;;;;;;7.52;100.00;101353.28;5074117;28;20032;-47
2022/11/06 01:09:05;;;;;;;34.17;12.10;;;;;;;7.50;100.00;101352.34;5073296;28;20098;-44
2022/11/06 01:11:34;;;;;;;33.88;11.00;;;;;;;7.46;100.00;101344.41;5073646;28;20032;-44
2022/11/06 01:14:01;;;;;;;30.80;11.43;;;;;;;7.41;100.00;101341.59;5073535;28;20086;-45
2022/11/06 01:16:27;;;;;;;43.47;12.18;;;;;;;7.38;100.00;101352.59;5073342;28;20033;-44
2022/11/06 01:18:54;;;;;;;38.42;12.98;;;;;;;7.41;100.00;101346.72;5073442;28;20103;-43
2022/11/06 01:21:25;;;;;;;27.27;10.80;;;;;;;7.39;100.00;101340.66;5073935;28;20028;-46
2022/11/06 01:23:58;;;;;;;29.77;10.57;;;;;;;7.41;100.00;101344.16;5073143;28;20488;-45
2022/11/06 01:26:25;;;;;;;31.83;10.23;;;;;;;7.41;100.00;101336.47;5073453;28;20104;-44
2022/11/06 01:28:50;;;;;;;32.13;10.32;;;;;;;7.41;100.00;101323.66;5073500;28;20103;-48
2022/11/06 01:31:19;;;;;;;25.92;10.32;;;;;;;7.44;100.00;101331.50;5072920;28;20441;-45
2022/11/06 01:33:45;;;;;;;38.80;10.65;;;;;;;7.45;100.00;101323.03;5073439;28;20037;-47
2022/11/06 01:36:12;;;;;;;28.52;10.38;;;;;;;7.46;100.00;101323.88;5072747;28;20020;-48
2022/11/06 01:38:42;;;;;;;28.95;9.73;;;;;;;7.49;100.00;101314.69;5073627;28;20040;-46
2022/11/06 01:41:10;;;;;;;30.55;10.38;;;;;;;7.52;100.00;101303.69;5072946;28;20035;-47
2022/11/06 01:43:44;;;;;;;;;;;;;;;7.56;100.00;101313.28;5073089;28;20413;-45
2022/11/06 01:46:09;;;;;;;30.15;10.10;;;;;;;7.57;100.00;101305.66;5072739;28;19971;-47
2022/11/06 01:48:35;;;;;;;31.13;10.02;;;;;;;7.58;100.00;101299.72;5073222;28;20524;-45
2022/11/06 01:51:01;;;;;;;32.88;10.10;;;;;;;7.62;100.00;101305.91;5072367;28;20029;-46
2022/11/06 01:53:26;;;;;;;35.08;10.23;;;;;;;7.66;100.00;101309.50;5072962;28;20029;-47
2022/11/06 01:55:57;;;;;;;35.78;9.48;;;;;;;7.68;100.00;101306.19;5073059;28;20418;-45
2022/11/06 01:58:25;;;;;;;30.58;10.35;;;;;;;7.71;100.00;101310.59;5072760;28;20036;-47
2022/11/06 02:00:51;;;;;;;30.45;9.70;;;;;;;7.75;100.00;101307.38;5073050;28;20110;-47
2022/11/06 02:03:17;;;;;;;28.60;9.32;;;;;;;7.79;100.00;101305.84;5072820;28;20127;-47
2022/11/06 02:05:43;;;;;;;30.40;9.48;;;;;;;7.82;100.00;101308.53;5072299;28;20021;-47
2022/11/06 02:08:18;;;;;;;29.90;9.93;;;;;;;7.85;100.00;101299.31;5072477;28;20027;-47
2022/11/06 02:10:44;;;;;;;23.08;8.30;;;;;;;7.90;100.00;101304.66;5072998;28;20380;-48
2022/11/06 02:13:12;;;;;;;24.75;7.90;;;;;;;7.91;100.00;101289.34;5072262;28;20081;-47
2022/11/06 02:16:02;;;;;;;33.53;9.20;;;;;;;7.96;100.00;101292.13;5072776;28;20024;-46
2022/11/06 02:18:49;;;;;;;30.25;8.65;;;;;;;7.99;100.00;101286.25;5072289;28;20054;-47
2022/11/06 02:21:23;;;;;;;31.92;9.27;;;;;;;7.99;100.00;101283.69;5072563;28;20111;-46
2022/11/06 02:24:24;;;;;;;24.25;7.63;;;;;;;8.03;100.00;101277.88;5072960;28;20028;-46
2022/11/06 02:27:10;;;;;;;29.58;8.63;;;;;;;8.01;100.00;101277.81;5072225;28;20021;-47
2022/11/06 02:29:58;;;;;;;26.23;8.10;;;;;;;8.03;100.00;101278.78;5072773;28;20049;-45
2022/11/06 02:32:29;;;;;;;28.70;8.27;;;;;;;8.03;100.00;101267.59;5072246;28;20025;-49
2022/11/06 02:34:57;;;;;;;26.40;8.23;;;;;;;8.01;100.00;101269.25;5072479;28;20020;-45
2022/11/06 02:37:31;;;;;;;30.42;8.73;;;;;;;7.99;100.00;101281.13;5072370;28;20388;-46
2022/11/06 02:40:00;;;;;;;25.35;7.20;;;;;;;7.97;100.00;101267.34;5071715;28;20029;-47
2022/11/06 02:42:28;;;;;;;30.60;8.35;;;;;;;7.98;100.00;101263.94;5072465;28;20119;-48
2022/11/06 02:44:55;;;;;;;33.30;8.80;;;;;;;7.97;100.00;101257.94;5072234;28;20515;-46
2022/11/06 02:47:23;;;;;;;27.83;7.70;;;;;;;7.96;100.00;101257.88;5071951;28;20094;-46
2022/11/06 02:49:58;;;;;;;29.35;7.82;;;;;;;7.94;100.00;101262.94;5072488;28;20064;-45
2022/11/06 02:52:31;;;;;;;33.53;7.97;;;;;;;7.95;100.00;101263.81;5072583;28;20113;-46
2022/11/06 02:55:04;;;;;;;34.75;8.38;;;;;;;7.97;100.00;101267.34;5071889;28;20024;-47
2022/11/06 02:57:35;;;;;;;27.92;7.45;;;;;;;7.97;100.00;101257.94;5072427;28;20150;-45
2022/11/06 03:00:07;;;;;;;33.75;7.78;;;;;;;7.94;100.00;101267.19;5072336;28;20169;-44
2022/11/06 03:02:40;;;;;;;26.17;7.85;;;;;;;7.95;100.00;101261.25;5071872;28;20357;-47
2022/11/06 03:05:17;;;;;;;31.27;8.02;;;;;;;7.94;100.00;101262.94;5072152;28;20031;-44
2022/11/06 03:07:48;;;;;;;23.10;7.75;;;;;;;7.94;100.00;101270.66;5072023;28;20024;-46
2022/11/06 03:10:14;;;;;;;29.67;7.72;;;;;;;7.97;100.00;101264.78;5071876;28;20036;-46
2022/11/06 03:12:53;;;;;;;30.45;8.48;;;;;;;8.00;100.00;101275.19;5072382;28;20017;-46
2022/11/06 03:15:37;;;;;;;27.00;8.02;;;;;;;8.01;100.00;101276.94;5071660;28;20028;-45
2022/11/06 03:18:18;;;;;;;25.27;7.35;;;;;;;8.05;100.00;101278.84;5073963;28;20028;-47
2022/11/06 03:21:04;;;;;;;23.73;7.57;;;;;;;8.08;100.00;101266.13;5076193;28;20020;-48
2022/11/06 03:23:44;;;;;;;23.73;7.38;;;;;;;8.08;100.00;101261.00;5075281;28;20028;-47
2022/11/06 03:26:14;;;;;;;22.90;7.38;;;;;;;8.03;100.00;101259.91;5075657;28;20044;-45
2022/11/06 03:28:54;;;;;;;27.92;7.00;;;;;;;8.03;100.00;101244.50;5075262;28;20387;-48
2022/11/06 03:31:29;;;;;;;30.38;8.18;;;;;;;7.96;100.00;101239.91;5075691;28;20032;-47
2022/11/06 03:34:01;;;;;;;21.90;7.80;;;;;;;7.95;100.00;101233.00;5075509;28;20038;-44
2022/11/06 03:36:33;;;;;;;23.77;8.10;;;;;;;7.92;100.00;101228.63;5075549;28;20021;-46
2022/11/06 03:39:05;;;;;;;25.85;8.32;;;;;;;7.88;100.00;101222.47;5075291;28;20024;-46
2022/11/06 03:42:03;;;;;;;33.72;8.05;;;;;;;7.86;100.00;101224.09;5075983;28;20040;-46
2022/11/06 03:44:32;;;;;;;28.38;7.43;;;;;;;7.85;100.00;101219.75;5074993;28;20078;-44
2022/11/06 03:47:10;;;;;;;28.25;7.63;;;;;;;7.88;100.00;101217.31;5075048;28;20064;-47
2022/11/06 03:49:42;;;;;;;23.77;7.72;;;;;;;7.91;100.00;101222.63;5075799;28;20082;-48
2022/11/06 03:52:17;;;;;;;33.20;8.48;;;;;;;7.95;100.00;101215.03;5075443;28;20031;-47
2022/11/06 03:54:57;;;;;;;26.45;7.47;;;;;;;8.00;100.00;101205.88;5075396;28;20029;-46
2022/11/06 03:57:31;;;;;;;25.42;7.78;;;;;;;8.00;100.00;101200.75;5074991;28;20089;-44
2022/11/06 04:00:00;;;;;;;27.10;8.05;;;;;;;8.03;100.00;101201.75;5074776;28;20388;-46
2022/11/06 04:02:30;;;;;;;28.73;8.05;;;;;;;8.05;100.00;101196.69;5075307;28;20153;-43
2022/11/06 04:05:20;;;;;;;25.58;7.95;;;;;;;8.08;100.00;101189.13;5074505;28;20029;-48
2022/11/06 04:16:07;;;;;;;32.70;8.00;;;;;;;8.06;100.00;101190.75;5075093;28;20078;-47
2022/11/06 04:18:32;;;;;;;25.98;7.90;;;;;;;8.04;100.00;101189.78;5074574;28;20022;-48
2022/11/06 04:21:25;;;;;;;24.17;7.47;;;;;;;8.06;100.00;101191.63;5074598;28;20036;-47
2022/11/06 04:27:22;;;;;;;28.20;8.27;;;;;;;8.08;100.00;101173.72;5074377;28;20121;-45
2022/11/06 04:29:58;;;;;;;29.92;7.93;;;;;;;8.09;100.00;101170.34;5074833;28;20040;-47
2022/11/06 04:32:35;;;;;;;27.40;8.15;;;;;;;8.07;100.00;101161.72;5074230;28;20036;-48
2022/11/06 04:35:09;;;;;;;25.40;8.43;;;;;;;8.03;100.00;101158.13;5074363;28;20036;-47
2022/11/06 04:37:53;;;;;;;25.73;8.70;;;;;;;8.02;100.00;101153.78;5074890;28;20112;-48
2022/11/06 04:40:30;;;;;;;26.67;8.25;;;;;;;7.96;100.00;101162.91;5073994;28;20482;-45
2022/11/06 04:43:00;;;;;;;24.05;8.32;;;;;;;7.90;100.00;101150.66;5074173;28;20028;-46
2022/11/06 04:45:31;;;;;;;23.20;8.10;;;;;;;7.89;100.00;101154.94;5074678;28;20025;-47
2022/11/06 04:47:58;;;;;;;21.80;8.52;;;;;;;7.88;100.00;101155.72;5073473;28;20049;-46
2022/11/06 04:50:26;;;;;;;27.10;8.63;;;;;;;7.90;100.00;101156.69;5074201;28;20025;-45
2022/11/06 04:52:52;;;;;;;22.15;7.57;;;;;;;7.86;100.00;101152.25;5074336;28;20033;-45
2022/11/06 04:55:20;;;;;;;26.73;8.75;;;;;;;7.85;100.00;101147.91;5073788;28;20021;-44
2022/11/06 04:57:45;;;;;;;25.58;8.25;;;;;;;7.88;100.00;101145.47;5074238;28;20104;-45
2022/11/06 05:00:15;;;;;;;30.42;8.90;;;;;;;7.84;100.00;101148.72;5073299;28;20064;-48
2022/11/06 05:02:40;;;;;;;27.67;8.55;;;;;;;7.81;100.00;101143.44;5073769;28;20041;-46
2022/11/06 05:05:07;;;;;;;31.65;9.55;;;;;;;7.81;100.00;101143.44;5073905;28;20127;-45
2022/11/06 05:07:32;;;;;;;33.65;8.43;;;;;;;7.80;100.00;101135.66;5073454;28;20111;-47
2022/11/06 05:09:57;;;;;;;29.23;9.02;;;;;;;7.76;100.00;101137.22;5073686;28;20536;-46
2022/11/06 05:12:22;;;;;;;31.08;9.25;;;;;;;7.76;100.00;101134.66;5073881;28;20025;-48
2022/11/06 05:14:48;;;;;;;26.73;8.75;;;;;;;7.74;100.00;101131.13;5073482;28;20024;-46
2022/11/06 05:17:13;;;;;;;31.13;8.73;;;;;;;7.73;100.00;101137.97;5073295;28;20095;-45
2022/11/06 05:19:38;;;;;;;26.90;8.77;;;;;;;7.73;100.00;101122.56;5073804;28;20042;-46
2022/11/06 05:24:55;;;;;;;28.27;8.85;;;;;;;7.73;100.00;101116.53;5049697;28;20044;-45
2022/11/06 05:27:20;;;;;;;24.55;8.57;;;;;;;7.69;100.00;101122.34;5073684;28;20028;-47
2022/11/06 05:29:45;;;;;;;26.42;8.32;;;;;;;7.69;100.00;101117.22;5073270;28;20032;-46
2022/11/06 05:32:11;;;;;;;27.13;8.80;;;;;;;7.67;100.00;101127.41;5072972;28;20040;-46
2022/11/06 05:34:36;;;;;;;24.42;8.95;;;;;;;7.68;100.00;101125.72;5073424;28;20013;-46
2022/11/06 05:37:01;;;;;;;30.15;8.70;;;;;;;7.71;100.00;101131.88;5072799;28;20468;-48
2022/11/06 05:39:26;;;;;;;27.40;8.23;;;;;;;7.70;100.00;101124.13;5073119;28;20027;-43
2022/11/06 05:41:52;;;;;;;27.90;9.20;;;;;;;7.75;100.00;101112.38;5072978;28;20380;-45
2022/11/06 05:44:17;;;;;;;27.65;9.20;;;;;;;7.73;100.00;101121.69;5072889;28;20056;-44
2022/11/06 05:46:42;;;;;;;23.42;9.02;;;;;;;7.79;100.00;101111.69;5073122;28;20051;-45
2022/11/06 05:49:08;;;;;;;23.67;8.88;;;;;;;7.78;100.00;101111.63;5072963;28;20028;-45
2022/11/06 05:51:33;;;;;;;27.95;8.80;;;;;;;7.78;100.00;101111.63;5072365;28;20033;-46
2022/11/06 05:53:58;;;;;;;22.88;9.00;;;;;;;7.76;100.00;101109.00;5073032;28;20021;-44
2022/11/06 05:56:24;;;;;;;27.98;9.18;;;;;;;7.81;100.00;101110.09;5072486;28;20058;-46
2022/11/06 05:58:49;;;;;;;27.02;8.30;;;;;;;7.79;100.00;101104.00;5072819;28;20468;-46
2022/11/06 06:01:14;;;;;;;28.65;8.82;;;;;;;7.84;100.00;101107.66;5072717;28;20036;-44
2022/11/06 06:03:40;;;;;;;29.05;8.55;;;;;;;7.89;100.00;101103.59;5072416;28;20025;-47
2022/11/06 06:06:05;;;;;;;26.98;8.00;;;;;;;7.87;100.00;101089.81;5072337;28;20434;-48
2022/11/06 06:08:31;;;;;;;28.65;8.38;;;;;;;7.83;100.00;101090.50;5073199;28;20021;-45
2022/11/06 06:10:56;;;;;;;23.48;8.20;;;;;;;7.81;100.00;101092.13;5072127;28;20108;-45
2022/11/06 06:13:21;;;;;;;26.80;8.18;;;;;;;7.82;100.00;101099.00;5072806;28;20036;-43
2022/11/06 06:15:46;;;;;;;23.77;8.30;;;;;;;7.82;100.00;101093.88;5072936;28;20016;-46
2022/11/06 06:18:12;;;;;;;23.65;8.48;;;;;;;7.81;100.00;101091.22;5072131;28;20032;-46
2022/11/06 06:20:37;;;;;;;22.25;7.72;;;;;;;7.87;100.00;101091.50;5072611;28;20024;-44
2022/11/06 06:23:03;;;;;;;27.38;8.60;;;;;;;7.87;100.00;101079.53;5072512;28;20033;-47
2022/11/06 06:25:29;;;;;;;26.27;7.35;;;;;;;7.85;100.00;101077.72;5072056;28;20056;-46
2022/11/06 06:27:55;;;;;;;21.20;7.97;;;;;;;7.86;100.00;101082.94;5072293;28;20020;-46
2022/11/06 06:30:21;;;;;;;26.73;7.85;;;;;;;7.90;100.00;101084.84;5072764;28;20029;-43
2022/11/06 06:32:47;;;;;;;22.77;7.60;;;;;;;7.94;100.00;101082.41;5072118;28;20017;-43
2022/11/06 06:35:13;;;;;;;22.65;7.25;;;;;;;7.99;100.00;101086.03;5072169;28;20024;-44
2022/11/06 06:37:38;;;;;;;23.33;7.57;;;;;;;8.00;100.00;101087.81;5072654;28;20035;-45
2022/11/06 06:40:04;;;;;;;26.95;8.15;;;;;;;7.98;100.00;101089.41;5071867;28;20028;-47
2022/11/06 06:42:30;;;;;;;22.73;7.82;;;;;;;7.97;100.00;101103.06;5072429;28;20029;-46
2022/11/06 06:44:56;;;;;;;37.67;8.30;;;;;;;7.95;100.00;101091.84;5072324;28;20020;-43
2022/11/06 06:47:21;;;;;;;23.80;7.65;;;;;;;7.98;100.00;101102.25;5071823;28;20056;-42
2022/11/06 06:49:46;;;;;;;28.95;7.45;;;;;;;7.96;100.00;101098.75;5072198;28;20361;-43
2022/11/06 06:52:12;;;;;;;21.80;6.95;;;;;;;7.94;100.00;101090.09;5073171;28;20028;-43
2022/11/06 06:54:38;;;;;;;21.20;7.30;;;;;;;7.97;100.00;101085.13;5076168;28;20028;-47
2022/11/06 06:57:05;;;;;;;23.20;6.55;;;;;;;8.00;100.00;101087.81;5076182;28;20114;-45
2022/11/06 06:59:31;;;;;;;23.40;6.73;;;;;;;8.03;100.00;101075.09;5076268;28;20110;-44
2022/11/06 07:01:56;;;;;;;28.70;7.28;;;;;;;7.99;100.00;101068.06;5075724;28;20783;-44
2022/11/06 07:04:22;;;;;;;25.05;7.28;;;;;;;8.05;100.00;101079.47;5076357;28;20025;-43
2022/11/06 07:06:47;;;;;;;29.13;7.63;;;;;;;8.12;100.00;101078.09;5076031;28;20028;-47
2022/11/06 07:09:12;;;;;;;25.40;6.72;;;;;;;8.21;100.00;101083.59;5075994;28;20495;-45
2022/11/06 07:11:38;;;;;;;24.92;7.57;;;;;;;8.29;100.00;101077.91;5076368;28;20035;-47
2022/11/06 07:14:03;;;;;;;23.17;8.05;;;;;;;8.36;100.00;101077.38;5075443;28;20498;-45
2022/11/06 07:16:28;;;;;;;25.52;7.15;;;;;;;8.42;100.00;101064.78;5075921;28;20035;-47
2022/11/06 07:18:54;;;;;;;23.20;7.40;;;;;;;8.51;100.00;101069.47;5075701;28;20026;-48
2022/11/06 07:21:19;;;;;;;29.30;7.50;;;;;;;8.57;100.00;101062.88;5075712;28;20112;-48
2022/11/06 07:23:45;;;;;;;22.65;6.65;;;;;;;8.62;100.00;101063.06;5075864;28;20119;-47
2022/11/06 07:26:10;;;;;;;20.42;6.93;;;;;;;8.67;100.00;101069.25;5075803;28;20430;-46
2022/11/06 07:28:35;;;;;;;25.25;6.55;;;;;;;8.74;100.00;101065.28;5075423;28;20115;-46
2022/11/06 07:31:03;;;;;;;20.23;6.35;;;;;;;8.78;100.00;101062.00;5075339;28;20016;-45
2022/11/06 07:33:29;;;;;;;24.83;7.00;;;;;;;8.83;100.00;101070.78;5075813;28;20035;-46
2022/11/06 07:35:55;;;;;;;22.65;6.72;;;;;;;8.88;100.00;101076.97;5074897;28;20375;-48
2022/11/06 07:38:20;;;;;;;26.05;5.97;;;;;;;8.94;100.00;101075.47;5075697;28;20512;-44
2022/11/06 07:40:45;;;;;;;17.17;6.28;;;;;;;8.96;100.00;101063.53;5075846;28;20030;-47
2022/11/06 07:43:11;;;;;;;21.15;6.43;;;;;;;8.98;100.00;101065.34;5074650;28;20040;-45
2022/11/06 07:45:37;;;;;;;28.08;6.70;;;;;;;9.02;100.00;101062.06;5075356;28;20479;-49
2022/11/06 07:48:03;;;;;;;22.02;5.97;;;;;;;9.04;100.00;101055.31;5074999;28;20136;-48
2022/11/06 07:50:29;;;;;;;31.63;6.63;;;;;;;9.04;100.00;101042.47;5075090;28;20056;-43
2022/11/06 07:52:54;;;;;;;22.77;6.35;;;;;;;9.13;100.00;101046.19;5074917;28;20063;-43
2022/11/06 07:55:20;;;;;;;22.27;5.97;;;;;;;9.21;99.49;101048.25;5075567;28;20029;-48
2022/11/06 07:57:45;;;;;;;25.35;6.35;;;;;;;9.28;98.88;101045.91;5074881;28;20028;-46
2022/11/06 08:00:12;;;;;;;21.30;6.32;;;;;;;9.26;99.05;101043.28;5074919;28;20092;-46
2022/11/06 08:02:37;;;;;;;22.60;6.32;;;;;;;9.26;98.69;101042.41;5074779;28;20037;-46
2022/11/06 08:05:03;;;;;;;21.00;6.30;;;;;;;9.25;98.19;101032.97;5074037;28;20085;-47
2022/11/06 08:07:28;;;;;;;22.58;6.85;;;;;;;9.22;98.62;101039.72;5075383;28;20483;-44
2022/11/06 08:09:53;;;;;;;17.10;5.70;;;;;;;9.21;98.78;101043.09;5074378;28;20024;-47
2022/11/06 08:12:19;;;;;;;24.45;5.80;;;;;;;9.22;98.67;101039.72;5075016;28;20541;-46
2022/11/06 08:14:44;;;;;;;23.25;6.63;;;;;;;9.23;98.32;101046.63;5075184;28;20029;-47
2022/11/06 08:17:09;;;;;;;17.30;5.50;;;;;;;9.24;99.05;101042.34;5074159;28;20028;-45
2022/11/06 08:19:35;;;;;;;25.90;6.72;;;;;;;9.27;98.74;101037.34;5075001;28;20021;-44
2022/11/06 08:22:00;;;;;;;19.48;5.70;;;;;;;9.35;98.05;101042.78;5074666;28;20025;-46
2022/11/06 08:24:25;;;;;;;16.90;5.72;;;;;;;9.41;97.52;101034.41;5074609;28;20414;-46
2022/11/06 08:26:50;;;;;;;16.85;5.00;;;;;;;9.46;97.84;101028.59;5074745;28;20025;-47
2022/11/06 08:29:16;;;;;;;22.70;5.32;;;;;;;9.49;97.29;101023.56;5074708;28;20099;-44
2022/11/06 08:31:41;;;;;;;22.67;5.63;;;;;;;9.53;97.09;101024.56;5074088;28;20032;-46
2022/11/06 08:34:07;;;;;;;19.58;5.85;;;;;;;9.55;96.68;101016.09;5074114;28;20044;-45
2022/11/06 08:36:38;;;;;;;21.50;5.65;;;;;;;9.62;96.51;101024.00;5074892;28;20111;-45
2022/11/06 08:39:03;;;;;;;16.08;5.25;;;;;;;9.67;96.11;101017.31;5073992;28;20029;-46
2022/11/06 08:41:28;;;;;;;26.15;5.55;;;;;;;9.72;95.58;101010.66;5074501;28;20043;-45
2022/11/06 08:43:54;;;;;;;20.17;5.57;;;;;;;9.78;95.33;101013.44;5074175;28;20037;-45
2022/11/06 08:46:19;;;;;;;22.45;5.30;;;;;;;9.86;95.02;101013.72;5073713;28;20480;-47
2022/11/06 08:48:44;;;;;;;23.17;5.03;;;;;;;9.91;94.65;101012.19;5074306;28;20361;-43
2022/11/06 08:51:09;;;;;;;19.13;5.20;;;;;;;9.96;93.98;101002.06;5074306;28;20028;-45
2022/11/06 08:53:35;;;;;;;21.30;5.57;;;;;;;10.01;93.94;101000.53;5073848;28;20380;-43
2022/11/06 08:56:04;;;;;;;20.60;4.93;;;;;;;10.05;93.31;101002.38;5073798;28;20024;-44
2022/11/06 08:58:29;;;;;;;16.30;4.93;;;;;;;10.14;92.90;101005.25;5074135;28;20020;-45
2022/11/06 09:00:54;;;;;;;33.13;5.55;;;;;;;10.18;92.89;101003.66;5073253;28;20040;-48
2022/11/06 09:03:20;;;;;;;25.95;5.25;;;;;;;10.23;92.83;100999.53;5074029;28;20039;-45
2022/11/06 09:05:46;;;;;;;18.10;5.25;;;;;;;10.29;91.44;100993.69;5074263;28;20070;-47
2022/11/06 09:08:12;;;;;;;18.65;4.75;;;;;;;10.35;91.52;100989.69;5073075;28;20415;-44
2022/11/06 09:10:39;;;;;;;23.95;5.03;;;;;;;10.37;91.48;100976.84;5074132;28;20016;-44
2022/11/06 09:13:05;;;;;;;15.77;4.78;;;;;;;10.40;91.06;100978.66;5073691;28;20112;-45
2022/11/06 09:15:30;;;;;;;19.52;4.80;;;;;;;10.42;91.04;100967.56;5072329;28;20107;-47
2022/11/06 09:17:56;;;;;;;16.98;4.80;;;;;;;10.48;91.38;100966.88;5073530;28;20040;-47
2022/11/06 09:20:23;;;;;;;15.20;4.32;;;;;;;10.50;90.82;100965.22;5073400;28;20123;-45
2022/11/06 09:22:49;;;;;;;13.18;4.45;;;;;;;10.53;89.93;100953.31;5073522;28;20037;-46
2022/11/06 09:25:15;;;;;;;12.88;4.22;;;;;;;10.62;90.33;100954.44;5073398;28;20112;-47
2022/11/06 09:27:48;;;;;;;17.50;4.63;;;;;;;10.73;89.87;100949.59;5073151;28;20119;-47
2022/11/06 09:30:16;;;;;;;14.63;4.25;;;;;;;10.82;88.93;100945.59;5073108;28;20409;-45
2022/11/06 09:32:50;;;;;;;14.93;4.43;;;;;;;11.09;87.14;100939.50;5073771;28;20067;-45
2022/11/06 09:35:16;;;;;;;15.40;4.25;;;;;;;11.48;85.10;100933.72;5073013;28;20063;-45
2022/11/06 09:37:41;;;;;;;12.50;3.55;;;;;;;12.01;83.28;100937.69;5073381;28;20040;-46
2022/11/06 09:40:16;;;;;;;16.58;3.92;;;;;;;12.32;80.37;100934.16;5073173;28;20040;-47
2022/11/06 09:43:23;;;;;;;26.77;4.72;;;;;;;12.46;81.11;100937.06;5072654;28;20132;-46
2022/11/06 09:45:50;;;;;;;13.18;4.05;;;;;;;12.49;77.65;100933.69;5072327;28;20111;-46
2022/11/06 09:48:29;;;;;;;9.93;3.20;;;;;;;12.50;78.43;100935.44;5072972;28;20052;-47
2022/11/06 09:51:06;;;;;;;14.75;3.80;;;;;;;12.19;79.11;100934.69;5072742;28;20086;-45
2022/11/06 09:53:40;;;;;;;16.77;3.85;;;;;;;12.05;78.95;100934.34;5073480;28;20025;-47
2022/11/06 09:56:11;;;;;;;17.25;4.40;;;;;;;11.94;79.84;100933.16;5072309;28;20546;-47
2022/11/06 09:58:40;;;;;;;20.17;4.28;;;;;;;11.91;79.82;100935.69;5073081;28;20037;-48
2022/11/06 10:01:18;;;;;;;13.63;4.05;;;;;;;11.77;80.95;100925.84;5072800;28;20031;-45
2022/11/06 10:03:58;;;;;;;16.13;3.80;;;;;;;11.66;82.13;100927.31;5072462;28;20036;-44
2022/11/06 10:06:25;;;;;;;25.90;4.43;;;;;;;11.53;82.08;100928.69;5072940;28;20051;-46
2022/11/06 10:08:55;;;;;;;18.40;4.57;;;;;;;11.57;82.69;100922.78;5073248;28;20044;-45
2022/11/06 10:11:54;;;;;;;19.20;4.50;;;;;;;11.62;82.77;100915.13;5072143;28;20056;-43
2022/11/06 10:14:53;;;;;;;15.48;4.13;;;;;;;11.66;81.79;100916.97;5072773;28;20388;-46
2022/11/06 10:17:36;;;;;;;15.93;4.07;;;;;;;12.04;79.92;100911.94;5072348;28;20025;-48
2022/11/06 10:20:20;;;;;;;20.63;4.25;;;;;;;12.30;80.75;100911.69;5072265;28;20078;-47
2022/11/06 10:23:39;;;;;;;19.05;4.85;;;;;;;12.33;78.23;100901.41;5072937;28;20107;-45
2022/11/06 10:26:11;;;;;;;17.73;3.80;;;;;;;12.24;78.28;100893.44;4971374;28;20113;-45
2022/11/06 10:28:58;;;;;;;18.65;4.53;;;;;;;11.93;78.58;100895.25;5069260;28;20373;-45
2022/11/06 10:31:35;;;;;;;18.05;6.18;;;;;;;11.72;80.70;100906.78;5072332;28;20122;-47
2022/11/06 10:34:16;;;;;;;21.92;5.93;;;;;;;11.67;81.38;100900.63;5072278;28;20036;-44
2022/11/06 10:36:47;;;;;;;25.65;6.78;;;;;;;11.64;80.68;100888.53;5072646;28;20032;-45
2022/11/06 10:39:18;;;;;;;35.50;13.50;;;;;;;11.65;80.53;100894.56;5071775;28;20036;-45
2022/11/06 10:41:51;;;;;;;28.05;9.13;;;;;;;11.67;81.35;100890.31;5072863;28;20031;-46
2022/11/06 10:44:24;;;;;;;74.15;25.48;;;;;;;11.56;81.22;100890.03;5072483;28;20039;-45
2022/11/06 10:46:59;;;;;;;28.23;9.20;;;;;;;11.69;81.38;100886.06;5071730;28;20048;-47
2022/11/06 10:49:34;;;;;;;30.23;9.98;;;;;;;11.64;80.16;100874.75;5072578;28;20021;-44
2022/11/06 10:52:16;;;;;;;48.00;16.42;;;;;;;11.75;79.77;100865.56;5071832;28;20365;-45
2022/11/06 10:54:51;;;;;;;83.38;25.48;;;;;;;12.01;79.82;100857.63;5072516;28;20115;-44
2022/11/06 10:57:42;;;;;;;30.10;9.30;;;;;;;12.13;78.96;100857.03;5072326;28;20029;-47
2022/11/06 11:00:12;;;;;;;74.45;25.80;;;;;;;12.17;78.39;100854.56;5071775;28;20028;-47
2022/11/06 11:02:56;;;;;;;108.57;36.70;;;;;;;12.41;78.34;100850.78;5072015;28;20029;-45
2022/11/06 11:05:24;;;;;;;25.75;7.35;;;;;;;12.28;76.08;100843.59;5072451;28;20064;-47
2022/11/06 11:07:50;;;;;;;51.70;16.98;;;;;;;12.19;76.67;100832.22;5071605;28;20380;-44
2022/11/06 11:10:24;;;;;;;25.88;6.22;;;;;;;12.19;77.68;100839.09;5072101;28;20468;-46
2022/11/06 11:12:53;;;;;;;17.63;4.55;;;;;;;12.25;76.94;100843.53;5071712;28;20434;-46
2022/11/06 11:15:21;;;;;;;21.58;7.03;;;;;;;12.34;75.99;100825.63;5072174;28;20061;-47
2022/11/06 11:18:11;;;;;;;72.97;28.83;;;;;;;12.35;77.44;100832.56;5072360;28;20077;-46
2022/11/06 11:20:38;;;;;;;31.63;11.30;;;;;;;12.05;76.07;100836.19;5071508;28;20099;-47
2022/11/06 11:23:14;;;;;;;28.58;9.73;;;;;;;11.91;76.93;100840.13;5071505;28;20379;-46
2022/11/06 11:25:42;;;;;;;29.48;12.32;;;;;;;11.84;77.42;100839.97;5072334;28;20099;-43
2022/11/06 11:28:28;;;;;;;27.25;11.02;;;;;;;11.68;77.17;100817.19;5071449;28;20103;-47
2022/11/06 11:31:11;;;;;;;20.85;6.00;;;;;;;11.60;77.88;100819.59;5071861;28;20029;-44
2022/11/06 11:33:39;;;;;;;23.98;6.38;;;;;;;11.51;77.14;100807.31;5072148;28;20345;-47
2022/11/06 11:36:06;;;;;;;27.25;6.47;;;;;;;11.58;77.09;100807.47;5070909;28;20028;-47
2022/11/06 11:38:39;;;;;;;19.80;7.43;;;;;;;11.60;76.86;100806.69;5073735;28;20086;-46
2022/11/06 11:41:23;;;;;;;30.55;12.32;;;;;;;11.62;76.91;100791.22;5075042;28;20028;-45
2022/11/06 11:44:04;;;;;;;23.20;7.43;;;;;;;11.56;77.08;100797.13;5075335;28;20403;-46
2022/11/06 11:46:29;;;;;;;67.03;29.48;;;;;;;11.45;76.66;100799.44;5075836;28;20121;-45